sensor_id;sensor_type;location;lat;lon;timestamp;pressure;altitude;pressure_sealevel;temperature;humidity
30554;BME280;17335;50.720;7.452;2023-01-19T00:00:50;97983.38;;;-0.92;100.00
30554;BME280;17335;50.720;7.452;2023-01-19T00:03:16;97989.81;;;-0.96;100.00
30554;BME280;17335;50.720;7.452;2023-01-19T00:05:43;97984.13;;;-1.03;100.00
30554;BME280;17335;50.720;7.452;2023-01-19T00:08:10;97987.28;;;-0.98;100.00
30554;BME280;17335;50.720;7.452;2023-01-19T00:10:46;97987.16;;;-1.09;100.00
30554;BME280;17335;50.720;7.452;2023-01-19T00:13:14;97993.25;;;-1.08;100.00
30554;BME280;17335;50.720;7.452;2023-01-19T00:15:41;97992.53;;;-1.10;100.00
30554;BME280;17335;50.720;7.452;2023-01-19T00:18:07;97998.53;;;-1.08;100.00
30554;BME280;17335;50.720;7.452;2023-01-19T00:20:36;97994.13;;;-1.08;100.00
30554;BME280;17335;50.720;7.452;2023-01-19T00:23:03;97994.22;;;-1.09;100.00
30554;BME280;17335;50.720;7.452;2023-01-19T00:25:30;97996.31;;;-1.15;100.00
30554;BME280;17335;50.720;7.452;2023-01-19T00:27:57;98000.09;;;-1.19;100.00
30554;BME280;17335;50.720;7.452;2023-01-19T00:30:26;98008.97;;;-1.20;100.00
30554;BME280;17335;50.720;7.452;2023-01-19T00:32:53;98011.59;;;-1.20;100.00
30554;BME280;17335;50.720;7.452;2023-01-19T00:35:19;98012.72;;;-1.24;100.00
30554;BME280;17335;50.720;7.452;2023-01-19T00:37:46;98023.69;;;-1.30;100.00
30554;BME280;17335;50.720;7.452;2023-01-19T00:40:12;98017.78;;;-1.21;100.00
30554;BME280;17335;50.720;7.452;2023-01-19T00:42:39;98017.59;;;-1.30;100.00
30554;BME280;17335;50.720;7.452;2023-01-19T00:45:08;98014.63;;;-1.26;100.00
30554;BME280;17335;50.720;7.452;2023-01-19T00:47:35;98020.09;;;-1.29;100.00
30554;BME280;17335;50.720;7.452;2023-01-19T00:50:02;98015.16;;;-1.34;100.00
30554;BME280;17335;50.720;7.452;2023-01-19T00:52:29;98026.03;;;-1.25;100.00
30554;BME280;17335;50.720;7.452;2023-01-19T00:54:55;98014.81;;;-1.29;100.00
30554;BME280;17335;50.720;7.452;2023-01-19T00:57:22;98010.00;;;-1.35;100.00
30554;BME280;17335;50.720;7.452;2023-01-19T00:59:48;98012.09;;;-1.40;100.00
30554;BME280;17335;50.720;7.452;2023-01-19T01:02:15;98011.75;;;-1.48;100.00
30554;BME280;17335;50.720;7.452;2023-01-19T01:04:42;98011.72;;;-1.61;100.00
30554;BME280;17335;50.720;7.452;2023-01-19T01:07:08;98013.50;;;-1.62;100.00
30554;BME280;17335;50.720;7.452;2023-01-19T01:09:36;98019.63;;;-1.61;100.00
30554;BME280;17335;50.720;7.452;2023-01-19T01:12:03;98011.09;;;-1.65;100.00
30554;BME280;17335;50.720;7.452;2023-01-19T01:14:31;98024.84;;;-1.74;100.00
30554;BME280;17335;50.720;7.452;2023-01-19T01:16:58;98024.84;;;-1.74;100.00
30554;BME280;17335;50.720;7.452;2023-01-19T01:19:25;98022.81;;;-1.83;100.00
30554;BME280;17335;50.720;7.452;2023-01-19T01:21:52;98015.13;;;-1.74;100.00
30554;BME280;17335;50.720;7.452;2023-01-19T01:24:18;98021.13;;;-1.84;100.00
30554;BME280;17335;50.720;7.452;2023-01-19T01:26:45;98019.53;;;-1.87;100.00
30554;BME280;17335;50.720;7.452;2023-01-19T01:29:12;98018.47;;;-1.84;100.00
30554;BME280;17335;50.720;7.452;2023-01-19T01:31:38;98023.94;;;-1.88;100.00
30554;BME280;17335;50.720;7.452;2023-01-19T01:34:05;98021.22;;;-1.86;100.00
30554;BME280;17335;50.720;7.452;2023-01-19T01:36:32;98020.13;;;-1.96;100.00
30554;BME280;17335;50.720;7.452;2023-01-19T01:38:59;98022.56;;;-1.93;100.00
30554;BME280;17335;50.720;7.452;2023-01-19T01:41:25;98015.72;;;-1.96;100.00
30554;BME280;17335;50.720;7.452;2023-01-19T01:43:54;98020.03;;;-1.95;100.00
30554;BME280;17335;50.720;7.452;2023-01-19T01:46:25;98016.47;;;-1.94;100.00
30554;BME280;17335;50.720;7.452;2023-01-19T01:49:07;98016.38;;;-1.92;100.00
30554;BME280;17335;50.720;7.452;2023-01-19T01:51:43;98015.72;;;-1.96;100.00
30554;BME280;17335;50.720;7.452;2023-01-19T01:54:18;98021.56;;;-2.05;100.00
30554;BME280;17335;50.720;7.452;2023-01-19T01:56:49;98019.91;;;-1.93;100.00
30554;BME280;17335;50.720;7.452;2023-01-19T02:02:01;98021.44;;;-1.89;100.00
30554;BME280;17335;50.720;7.452;2023-01-19T02:04:52;98011.94;;;-1.92;100.00
30554;BME280;17335;50.720;7.452;2023-01-19T02:07:31;98020.19;;;-1.83;100.00
30554;BME280;17335;50.720;7.452;2023-01-19T02:10:18;98021.44;;;-1.89;100.00
30554;BME280;17335;50.720;7.452;2023-01-19T02:13:03;98021.22;;;-1.86;100.00
30554;BME280;17335;50.720;7.452;2023-01-19T02:15:48;98021.13;;;-1.84;100.00
30554;BME280;17335;50.720;7.452;2023-01-19T02:18:15;98011.75;;;-1.89;100.00
30554;BME280;17335;50.720;7.452;2023-01-19T02:20:49;98011.31;;;-1.82;100.00
30554;BME280;17335;50.720;7.452;2023-01-19T02:26:00;98011.31;;;-1.82;100.00
30554;BME280;17335;50.720;7.452;2023-01-19T02:28:29;98012.09;;;-1.80;100.00
30554;BME280;17335;50.720;7.452;2023-01-19T02:30:56;98023.25;;;-1.77;100.00
30554;BME280;17335;50.720;7.452;2023-01-19T02:33:22;98024.84;;;-1.74;100.00
30554;BME280;17335;50.720;7.452;2023-01-19T02:35:50;98031.38;;;-1.67;100.00
30554;BME280;17335;50.720;7.452;2023-01-19T02:38:27;98032.97;;;-1.64;100.00
30554;BME280;17335;50.720;7.452;2023-01-19T02:40:56;98030.59;;;-1.55;100.00
30554;BME280;17335;50.720;7.452;2023-01-19T02:43:25;98025.97;;;-1.51;100.00
30554;BME280;17335;50.720;7.452;2023-01-19T02:45:53;98016.38;;;-1.52;100.00
30554;BME280;17335;50.720;7.452;2023-01-19T02:48:20;98019.84;;;-1.52;100.00
30554;BME280;17335;50.720;7.452;2023-01-19T02:50:58;98023.72;;;-1.57;100.00
30554;BME280;17335;50.720;7.452;2023-01-19T02:56:43;98027.28;;;-1.58;100.00
30554;BME280;17335;50.720;7.452;2023-01-19T03:02:26;98032.25;;;-1.54;100.00
30554;BME280;17335;50.720;7.452;2023-01-19T03:08:25;98040.31;;;-1.42;100.00
30554;BME280;17335;50.720;7.452;2023-01-19T03:13:29;98038.94;;;-1.35;100.00
30554;BME280;17335;50.720;7.452;2023-01-19T03:19:08;98034.03;;;-1.27;100.00
30554;BME280;17335;50.720;7.452;2023-01-19T03:21:40;98040.22;;;-1.28;100.00
30554;BME280;17335;50.720;7.452;2023-01-19T03:24:10;98036.56;;;-1.25;100.00
30554;BME280;17335;50.720;7.452;2023-01-19T03:26:41;98034.13;;;-1.28;100.00
30554;BME280;17335;50.720;7.452;2023-01-19T03:29:11;98038.22;;;-1.24;100.00
30554;BME280;17335;50.720;7.452;2023-01-19T03:31:43;98045.09;;;-1.22;100.00
30554;BME280;17335;50.720;7.452;2023-01-19T03:34:13;98034.31;;;-1.19;100.00
30554;BME280;17335;50.720;7.452;2023-01-19T03:36:48;98033.47;;;-1.32;100.00
30554;BME280;17335;50.720;7.452;2023-01-19T03:39:24;98030.31;;;-1.37;100.00
30554;BME280;17335;50.720;7.452;2023-01-19T03:41:53;98037.34;;;-1.38;100.00
30554;BME280;17335;50.720;7.452;2023-01-19T03:44:23;98032.31;;;-1.41;100.00
30554;BME280;17335;50.720;7.452;2023-01-19T03:46:51;98037.69;;;-1.42;100.00
30554;BME280;17335;50.720;7.452;2023-01-19T03:49:18;98041.03;;;-1.40;100.00
30554;BME280;17335;50.720;7.452;2023-01-19T03:51:44;98034.50;;;-1.47;100.00
30554;BME280;17335;50.720;7.452;2023-01-19T03:54:11;98034.34;;;-1.59;100.00
30554;BME280;17335;50.720;7.452;2023-01-19T03:56:38;98037.53;;;-1.54;100.00
30554;BME280;17335;50.720;7.452;2023-01-19T03:59:04;98030.34;;;-1.64;100.00
30554;BME280;17335;50.720;7.452;2023-01-19T04:01:31;98028.44;;;-1.62;100.00
30554;BME280;17335;50.720;7.452;2023-01-19T04:03:58;98029.50;;;-1.65;100.00
30554;BME280;17335;50.720;7.452;2023-01-19T04:06:24;98031.59;;;-1.70;100.00
30554;BME280;17335;50.720;7.452;2023-01-19T04:08:52;98029.50;;;-1.65;100.00
30554;BME280;17335;50.720;7.452;2023-01-19T04:11:19;98024.03;;;-1.62;100.00
30554;BME280;17335;50.720;7.452;2023-01-19T04:13:45;98036.44;;;-1.64;100.00
30554;BME280;17335;50.720;7.452;2023-01-19T04:16:12;98036.19;;;-1.74;100.00
30554;BME280;17335;50.720;7.452;2023-01-19T04:18:39;98043.41;;;-1.63;100.00
30554;BME280;17335;50.720;7.452;2023-01-19T04:21:06;98041.31;;;-1.58;100.00
30554;BME280;17335;50.720;7.452;2023-01-19T04:23:33;98039.63;;;-1.59;100.00
30554;BME280;17335;50.720;7.452;2023-01-19T04:26:04;98038.88;;;-1.61;100.00
30554;BME280;17335;50.720;7.452;2023-01-19T04:28:32;98041.75;;;-1.51;100.00
30554;BME280;17335;50.720;7.452;2023-01-19T04:31:00;98039.97;;;-1.51;100.00
30554;BME280;17335;50.720;7.452;2023-01-19T04:33:27;98032.50;;;-1.44;100.00
30554;BME280;17335;50.720;7.452;2023-01-19T04:35:53;98040.22;;;-1.41;100.00
30554;BME280;17335;50.720;7.452;2023-01-19T04:38:22;98034.41;;;-1.33;100.00
30554;BME280;17335;50.720;7.452;2023-01-19T04:40:50;98031.88;;;-1.35;100.00
30554;BME280;17335;50.720;7.452;2023-01-19T04:43:22;98033.16;;;-1.27;100.00
30554;BME280;17335;50.720;7.452;2023-01-19T04:45:48;98032.31;;;-1.28;100.00
30554;BME280;17335;50.720;7.452;2023-01-19T04:48:16;98035.06;;;-1.29;100.00
30554;BME280;17335;50.720;7.452;2023-01-19T04:50:43;98037.19;;;-1.22;100.00
30554;BME280;17335;50.720;7.452;2023-01-19T04:53:10;98043.00;;;-1.17;100.00
30554;BME280;17335;50.720;7.452;2023-01-19T04:55:38;98048.44;;;-1.20;100.00
30554;BME280;17335;50.720;7.452;2023-01-19T04:58:05;98052.34;;;-1.13;100.00
30554;BME280;17335;50.720;7.452;2023-01-19T05:00:31;98039.63;;;-1.06;100.00
30554;BME280;17335;50.720;7.452;2023-01-19T05:02:59;98032.34;;;-1.02;100.00
30554;BME280;17335;50.720;7.452;2023-01-19T05:05:27;98037.00;;;-1.06;100.00
30554;BME280;17335;50.720;7.452;2023-01-19T05:07:53;98031.94;;;-0.96;100.00
30554;BME280;17335;50.720;7.452;2023-01-19T05:10:20;98036.88;;;-0.91;100.00
30554;BME280;17335;50.720;7.452;2023-01-19T05:12:47;98030.69;;;-0.90;100.00
30554;BME280;17335;50.720;7.452;2023-01-19T05:15:14;98037.41;;;-0.86;100.00
30554;BME280;17335;50.720;7.452;2023-01-19T05:17:41;98035.50;;;-0.84;100.00
30554;BME280;17335;50.720;7.452;2023-01-19T05:20:12;98033.63;;;-0.82;100.00
30554;BME280;17335;50.720;7.452;2023-01-19T05:22:42;98027.28;;;-0.80;100.00
30554;BME280;17335;50.720;7.452;2023-01-19T05:25:09;98033.63;;;-0.82;100.00
30554;BME280;17335;50.720;7.452;2023-01-19T05:27:36;98028.03;;;-0.78;100.00
30554;BME280;17335;50.720;7.452;2023-01-19T05:30:05;98030.44;;;-0.74;100.00
30554;BME280;17335;50.720;7.452;2023-01-19T05:32:31;98028.78;;;-0.76;100.00
30554;BME280;17335;50.720;7.452;2023-01-19T05:34:58;98026.78;;;-0.72;100.00
30554;BME280;17335;50.720;7.452;2023-01-19T05:37:25;98031.09;;;-0.71;100.00
30554;BME280;17335;50.720;7.452;2023-01-19T05:39:52;98038.88;;;-0.69;100.00
30554;BME280;17335;50.720;7.452;2023-01-19T05:42:19;98031.72;;;-0.67;100.00
30554;BME280;17335;50.720;7.452;2023-01-19T05:44:45;98026.34;;;-0.66;100.00
30554;BME280;17335;50.720;7.452;2023-01-19T05:47:12;98030.47;;;-0.62;100.00
30554;BME280;17335;50.720;7.452;2023-01-19T05:49:38;98031.19;;;-0.60;100.00
30554;BME280;17335;50.720;7.452;2023-01-19T05:52:05;98028.44;;;-0.58;100.00
30554;BME280;17335;50.720;7.452;2023-01-19T05:54:31;98027.91;;;-0.50;100.00
30554;BME280;17335;50.720;7.452;2023-01-19T05:56:57;98022.53;;;-0.49;100.00
30554;BME280;17335;50.720;7.452;2023-01-19T05:59:24;98031.41;;;-0.50;100.00
30554;BME280;17335;50.720;7.452;2023-01-19T06:01:52;98031.16;;;-0.47;100.00
30554;BME280;17335;50.720;7.452;2023-01-19T06:04:19;98030.22;;;-0.46;100.00
30554;BME280;17335;50.720;7.452;2023-01-19T06:06:49;98031.06;;;-0.45;100.00
30554;BME280;17335;50.720;7.452;2023-01-19T06:09:16;98038.84;;;-0.44;100.00
30554;BME280;17335;50.720;7.452;2023-01-19T06:11:43;98031.56;;;-0.40;100.00
30554;BME280;17335;50.720;7.452;2023-01-19T06:14:10;98036.94;;;-0.42;100.00
30554;BME280;17335;50.720;7.452;2023-01-19T06:16:37;98051.53;;;-0.36;100.00
30554;BME280;17335;50.720;7.452;2023-01-19T06:19:04;98042.53;;;-0.33;100.00
30554;BME280;17335;50.720;7.452;2023-01-19T06:21:31;98055.72;;;-0.33;100.00
30554;BME280;17335;50.720;7.452;2023-01-19T06:23:57;98052.41;;;-0.24;100.00
30554;BME280;17335;50.720;7.452;2023-01-19T06:26:24;98053.38;;;-0.25;100.00
30554;BME280;17335;50.720;7.452;2023-01-19T06:28:51;98050.03;;;-0.27;100.00
30554;BME280;17335;50.720;7.452;2023-01-19T06:31:18;98061.41;;;-0.27;100.00
30554;BME280;17335;50.720;7.452;2023-01-19T06:33:44;98066.06;;;-0.30;100.00
30554;BME280;17335;50.720;7.452;2023-01-19T06:36:11;98066.78;;;-0.28;100.00
30554;BME280;17335;50.720;7.452;2023-01-19T06:38:37;98070.34;;;-0.29;100.00
30554;BME280;17335;50.720;7.452;2023-01-19T06:41:04;98071.13;;;-0.27;100.00
30554;BME280;17335;50.720;7.452;2023-01-19T06:43:31;98080.19;;;-0.31;100.00
30554;BME280;17335;50.720;7.452;2023-01-19T06:45:57;98077.22;;;-0.27;100.00
30554;BME280;17335;50.720;7.452;2023-01-19T06:48:25;98075.44;;;-0.26;100.00
30554;BME280;17335;50.720;7.452;2023-01-19T06:50:52;98089.47;;;-0.26;100.00
30554;BME280;17335;50.720;7.452;2023-01-19T06:53:18;98080.38;;;-0.34;100.00
30554;BME280;17335;50.720;7.452;2023-01-19T06:55:47;98085.25;;;-0.28;100.00
30554;BME280;17335;50.720;7.452;2023-01-19T06:58:13;98085.44;;;-0.31;100.00
30554;BME280;17335;50.720;7.452;2023-01-19T07:00:40;98086.69;;;-0.24;100.00
30554;BME280;17335;50.720;7.452;2023-01-19T07:03:10;98092.44;;;-0.30;100.00
30554;BME280;17335;50.720;7.452;2023-01-19T07:05:44;98085.56;;;-0.33;100.00
30554;BME280;17335;50.720;7.452;2023-01-19T07:08:11;98096.63;;;-0.28;100.00
30554;BME280;17335;50.720;7.452;2023-01-19T07:10:38;98093.38;;;-0.31;100.00
30554;BME280;17335;50.720;7.452;2023-01-19T07:13:24;98091.78;;;-0.34;100.00
30554;BME280;17335;50.720;7.452;2023-01-19T07:15:51;98099.50;;;-0.31;100.00
30554;BME280;17335;50.720;7.452;2023-01-19T07:18:18;98101.28;;;-0.31;100.00
30554;BME280;17335;50.720;7.452;2023-01-19T07:20:44;98104.63;;;-0.29;100.00
30554;BME280;17335;50.720;7.452;2023-01-19T07:23:12;98112.03;;;-0.34;100.00
30554;BME280;17335;50.720;7.452;2023-01-19T07:25:38;98111.72;;;-0.30;100.00
30554;BME280;17335;50.720;7.452;2023-01-19T07:28:05;98119.41;;;-0.27;100.00
30554;BME280;17335;50.720;7.452;2023-01-19T07:30:32;98127.44;;;-0.28;100.00
30554;BME280;17335;50.720;7.452;2023-01-19T07:32:59;98136.06;;;-0.26;100.00
30554;BME280;17335;50.720;7.452;2023-01-19T07:35:26;98133.97;;;-0.21;100.00
30554;BME280;17335;50.720;7.452;2023-01-19T07:37:54;98137.66;;;-0.24;100.00
30554;BME280;17335;50.720;7.452;2023-01-19T07:40:21;98140.72;;;-0.17;100.00
30554;BME280;17335;50.720;7.452;2023-01-19T07:42:49;98141.03;;;-0.22;100.00
30554;BME280;17335;50.720;7.452;2023-01-19T07:45:18;98140.72;;;-0.17;100.00
30554;BME280;17335;50.720;7.452;2023-01-19T07:47:47;98141.66;;;-0.18;100.00
30554;BME280;17335;50.720;7.452;2023-01-19T07:50:15;98150.09;;;-0.13;100.00
30554;BME280;17335;50.720;7.452;2023-01-19T07:52:42;98149.16;;;-0.12;100.00
30554;BME280;17335;50.720;7.452;2023-01-19T07:55:10;98152.75;;;-0.13;100.00
30554;BME280;17335;50.720;7.452;2023-01-19T07:57:36;98152.53;;;-0.10;100.00
30554;BME280;17335;50.720;7.452;2023-01-19T08:00:03;98159.28;;;-0.06;100.00
30554;BME280;17335;50.720;7.452;2023-01-19T08:02:31;98168.44;;;0.02;100.00
30554;BME280;17335;50.720;7.452;2023-01-19T08:04:59;98162.63;;;-0.04;100.00
30554;BME280;17335;50.720;7.452;2023-01-19T08:07:25;98165.81;;;0.02;100.00
30554;BME280;17335;50.720;7.452;2023-01-19T08:09:52;98170.88;;;0.05;100.00
30554;BME280;17335;50.720;7.452;2023-01-19T08:12:18;98167.50;;;0.03;100.00
30554;BME280;17335;50.720;7.452;2023-01-19T08:14:45;98179.31;;;0.10;100.00
30554;BME280;17335;50.720;7.452;2023-01-19T08:17:12;98177.63;;;0.09;100.00
30554;BME280;17335;50.720;7.452;2023-01-19T08:19:38;98187.53;;;0.05;100.00
30554;BME280;17335;50.720;7.452;2023-01-19T08:22:07;98191.75;;;0.08;100.00
30554;BME280;17335;50.720;7.452;2023-01-19T08:24:33;98194.00;;;0.14;100.00
30554;BME280;17335;50.720;7.452;2023-01-19T08:27:01;98199.38;;;0.12;100.00
30554;BME280;17335;50.720;7.452;2023-01-19T08:29:29;98190.69;;;0.10;100.00
30554;BME280;17335;50.720;7.452;2023-01-19T08:31:57;98200.22;;;0.13;100.00
30554;BME280;17335;50.720;7.452;2023-01-19T08:34:25;98198.75;;;0.09;100.00
30554;BME280;17335;50.720;7.452;2023-01-19T08:36:52;98200.00;;;0.16;100.00
30554;BME280;17335;50.720;7.452;2023-01-19T08:39:19;98199.13;;;0.15;100.00
30554;BME280;17335;50.720;7.452;2023-01-19T08:41:45;98206.31;;;0.13;100.00
30554;BME280;17335;50.720;7.452;2023-01-19T08:44:12;98200.00;;;0.16;100.00
30554;BME280;17335;50.720;7.452;2023-01-19T08:46:38;98201.25;;;0.23;100.00
30554;BME280;17335;50.720;7.452;2023-01-19T08:49:05;98204.63;;;0.25;100.00
30554;BME280;17335;50.720;7.452;2023-01-19T08:51:32;98212.00;;;0.20;100.00
30554;BME280;17335;50.720;7.452;2023-01-19T08:53:58;98221.28;;;0.26;100.00
30554;BME280;17335;50.720;7.452;2023-01-19T08:56:25;98215.38;;;0.22;100.00
30554;BME280;17335;50.720;7.452;2023-01-19T08:58:52;98212.31;;;0.28;100.00
30554;BME280;17335;50.720;7.452;2023-01-19T09:01:34;98222.47;;;0.34;100.00
30554;BME280;17335;50.720;7.452;2023-01-19T09:04:02;98229.53;;;0.34;100.00
30554;BME280;17335;50.720;7.452;2023-01-19T09:06:29;98231.44;;;0.32;100.00
30554;BME280;17335;50.720;7.452;2023-01-19T09:08:55;98231.31;;;0.33;100.00
30554;BME280;17335;50.720;7.452;2023-01-19T09:11:22;98240.94;;;0.34;100.00
30554;BME280;17335;50.720;7.452;2023-01-19T09:13:49;98235.00;;;0.44;100.00
30554;BME280;17335;50.720;7.452;2023-01-19T09:16:16;98242.06;;;0.56;100.00
30554;BME280;17335;50.720;7.452;2023-01-19T09:18:43;98241.31;;;0.54;100.00
30554;BME280;17335;50.720;7.452;2023-01-19T09:21:11;98242.78;;;0.58;100.00
30554;BME280;17335;50.720;7.452;2023-01-19T09:23:37;98246.16;;;0.60;100.00
30554;BME280;17335;50.720;7.452;2023-01-19T09:26:04;98246.34;;;0.70;100.00
30554;BME280;17335;50.720;7.452;2023-01-19T09:28:31;98243.91;;;0.67;100.00
30554;BME280;17335;50.720;7.452;2023-01-19T09:30:57;98244.44;;;0.72;100.00
30554;BME280;17335;50.720;7.452;2023-01-19T09:33:24;98246.75;;;0.77;100.00
30554;BME280;17335;50.720;7.452;2023-01-19T09:35:51;98251.19;;;0.76;100.00
30554;BME280;17335;50.720;7.452;2023-01-19T09:38:18;98248.97;;;0.83;100.00
30554;BME280;17335;50.720;7.452;2023-01-19T09:40:55;98258.78;;;0.81;100.00
30554;BME280;17335;50.720;7.452;2023-01-19T09:43:34;98256.91;;;0.83;100.00
30554;BME280;17335;50.720;7.452;2023-01-19T09:46:14;98251.19;;;0.76;100.00
30554;BME280;17335;50.720;7.452;2023-01-19T09:48:45;98248.47;;;0.78;100.00
30554;BME280;17335;50.720;7.452;2023-01-19T09:51:27;98260.28;;;0.72;100.00
30554;BME280;17335;50.720;7.452;2023-01-19T09:54:13;98253.44;;;0.69;100.00
30554;BME280;17335;50.720;7.452;2023-01-19T09:56:46;98257.38;;;0.64;100.00
30554;BME280;17335;50.720;7.452;2023-01-19T09:59:28;98256.81;;;0.71;100.00
30554;BME280;17335;50.720;7.452;2023-01-19T10:10:22;98250.75;;;0.82;100.00
30554;BME280;17335;50.720;7.452;2023-01-19T10:16:02;98269.53;;;0.90;100.00
30554;BME280;17335;50.720;7.452;2023-01-19T10:21:18;98263.38;;;1.03;100.00
30554;BME280;17335;50.720;7.452;2023-01-19T10:23:52;98268.00;;;1.12;100.00
30554;BME280;17335;50.720;7.452;2023-01-19T10:26:30;98269.53;;;1.27;100.00
30554;BME280;17335;50.720;7.452;2023-01-19T10:29:32;98272.31;;;1.37;100.00
30554;BME280;17335;50.720;7.452;2023-01-19T10:32:16;98266.09;;;1.38;100.00
30554;BME280;17335;50.720;7.452;2023-01-19T10:34:45;98261.50;;;1.40;100.00
30554;BME280;17335;50.720;7.452;2023-01-19T10:42:39;98261.72;;;1.37;100.00
30554;BME280;17335;50.720;7.452;2023-01-19T10:45:16;98252.84;;;1.38;100.00
30554;BME280;17335;50.720;7.452;2023-01-19T10:47:44;98260.50;;;1.30;100.00
30554;BME280;17335;50.720;7.452;2023-01-19T10:52:51;98263.88;;;1.32;100.00
30554;BME280;17335;50.720;7.452;2023-01-19T10:55:36;98272.16;;;1.27;100.00
30554;BME280;17335;50.720;7.452;2023-01-19T10:58:04;98278.47;;;1.38;100.00
30554;BME280;17335;50.720;7.452;2023-01-19T11:00:37;98268.25;;;1.44;100.00
30554;BME280;17335;50.720;7.452;2023-01-19T11:03:23;98271.41;;;1.49;100.00
30554;BME280;17335;50.720;7.452;2023-01-19T11:05:50;98274.03;;;1.49;100.00
30554;BME280;17335;50.720;7.452;2023-01-19T11:08:22;98266.59;;;1.43;100.00
30554;BME280;17335;50.720;7.452;2023-01-19T11:11:00;98267.19;;;1.47;100.00
30554;BME280;17335;50.720;7.452;2023-01-19T11:13:30;98262.53;;;1.50;100.00
30554;BME280;17335;50.720;7.452;2023-01-19T11:16:03;98273.53;;;1.44;100.00
30554;BME280;17335;50.720;7.452;2023-01-19T11:18:38;98277.81;;;1.34;100.00
30554;BME280;17335;50.720;7.452;2023-01-19T11:21:12;98277.56;;;1.26;100.00
30554;BME280;17335;50.720;7.452;2023-01-19T11:26:43;98269.66;;;1.13;100.00
30554;BME280;17335;50.720;7.452;2023-01-19T11:29:19;98267.13;;;1.11;100.00
30554;BME280;17335;50.720;7.452;2023-01-19T11:31:47;98265.47;;;1.10;100.00
30554;BME280;17335;50.720;7.452;2023-01-19T11:34:35;98271.25;;;1.16;100.00
30554;BME280;17335;50.720;7.452;2023-01-19T11:42:14;98260.47;;;1.19;100.00
30554;BME280;17335;50.720;7.452;2023-01-19T11:47:35;98264.06;;;1.18;100.00
30554;BME280;17335;50.720;7.452;2023-01-19T11:50:05;98268.84;;;1.12;100.00
30554;BME280;17335;50.720;7.452;2023-01-19T11:52:46;98262.25;;;1.18;100.00
30554;BME280;17335;50.720;7.452;2023-01-19T11:58:13;98264.38;;;1.13;100.00
30554;BME280;17335;50.720;7.452;2023-01-19T12:00:42;98266.41;;;1.09;100.00
30554;BME280;17335;50.720;7.452;2023-01-19T12:06:19;98270.91;;;1.20;100.00
30554;BME280;17335;50.720;7.452;2023-01-19T12:12:08;98268.41;;;1.19;100.00
30554;BME280;17335;50.720;7.452;2023-01-19T12:14:41;98285.72;;;1.23;100.00
30554;BME280;17335;50.720;7.452;2023-01-19T12:17:22;98277.44;;;1.27;100.00
30554;BME280;17335;50.720;7.452;2023-01-19T12:19:59;98276.66;;;1.38;100.00
30554;BME280;17335;50.720;7.452;2023-01-19T12:22:29;98288.13;;;1.50;100.00
30554;BME280;17335;50.720;7.452;2023-01-19T12:25:16;98271.44;;;1.61;100.00
30554;BME280;17335;50.720;7.452;2023-01-19T12:27:47;98271.94;;;1.66;100.00
30554;BME280;17335;50.720;7.452;2023-01-19T12:30:21;98281.59;;;1.78;100.00
30554;BME280;17335;50.720;7.452;2023-01-19T12:32:49;98270.56;;;1.84;100.00
30554;BME280;17335;50.720;7.452;2023-01-19T12:51:48;98266.94;;;2.32;100.00
30554;BME280;17335;50.720;7.452;2023-01-19T12:54:28;98266.31;;;2.40;100.00
30554;BME280;17335;50.720;7.452;2023-01-19T12:57:04;98264.78;;;2.37;100.00
30554;BME280;17335;50.720;7.452;2023-01-19T12:59:35;98263.66;;;2.40;100.00
30554;BME280;17335;50.720;7.452;2023-01-19T13:13:22;98275.94;;;2.75;100.00
30554;BME280;17335;50.720;7.452;2023-01-19T13:15:50;98273.06;;;2.89;100.00
30554;BME280;17335;50.720;7.452;2023-01-19T13:18:26;98273.13;;;2.99;100.00
30554;BME280;17335;50.720;7.452;2023-01-19T13:21:07;98269.28;;;3.03;100.00
30554;BME280;17335;50.720;7.452;2023-01-19T13:26:17;98266.53;;;3.05;100.00
30554;BME280;17335;50.720;7.452;2023-01-19T13:28:45;98277.00;;;3.06;100.00
30554;BME280;17335;50.720;7.452;2023-01-19T13:31:15;98268.47;;;3.03;100.00
30554;BME280;17335;50.720;7.452;2023-01-19T13:33:48;98276.53;;;3.01;100.00
30554;BME280;17335;50.720;7.452;2023-01-19T13:36:36;98270.88;;;2.94;100.00
30554;BME280;17335;50.720;7.452;2023-01-19T13:39:25;98271.59;;;2.85;100.00
30554;BME280;17335;50.720;7.452;2023-01-19T13:41:56;98283.31;;;2.83;100.00
30554;BME280;17335;50.720;7.452;2023-01-19T13:44:28;98274.03;;;2.66;100.00
30554;BME280;17335;50.720;7.452;2023-01-19T13:46:57;98281.38;;;2.62;100.00
30554;BME280;17335;50.720;7.452;2023-01-19T13:49:44;98283.31;;;2.49;100.00
30554;BME280;17335;50.720;7.452;2023-01-19T13:54:47;98291.25;;;2.49;100.00
30554;BME280;17335;50.720;7.452;2023-01-19T14:02:38;98294.00;;;2.24;100.00
30554;BME280;17335;50.720;7.452;2023-01-19T14:05:22;98302.88;;;2.23;100.00
30554;BME280;17335;50.720;7.452;2023-01-19T14:10:34;98309.63;;;2.16;100.00
30554;BME280;17335;50.720;7.452;2023-01-19T14:15:38;98306.75;;;2.19;100.00
30554;BME280;17335;50.720;7.452;2023-01-19T14:20:39;98316.38;;;2.20;100.00
30554;BME280;17335;50.720;7.452;2023-01-19T14:29:23;98310.00;;;2.12;100.00
30554;BME280;17335;50.720;7.452;2023-01-19T14:34:45;98325.72;;;2.02;100.00
30554;BME280;17335;50.720;7.452;2023-01-19T14:39:46;98326.56;;;2.02;100.00
30554;BME280;17335;50.720;7.452;2023-01-19T14:42:16;98327.41;;;2.03;100.00
30554;BME280;17335;50.720;7.452;2023-01-19T14:44:46;98327.28;;;2.04;100.00
30554;BME280;17335;50.720;7.452;2023-01-19T14:47:25;98325.38;;;2.06;100.00
30554;BME280;17335;50.720;7.452;2023-01-19T14:49:53;98337.53;;;2.09;100.00
30554;BME280;17335;50.720;7.452;2023-01-19T14:52:31;98340.66;;;2.03;100.00
30554;BME280;17335;50.720;7.452;2023-01-19T14:54:59;98339.06;;;2.00;100.00
30554;BME280;17335;50.720;7.452;2023-01-19T14:57:29;98340.97;;;1.98;100.00
30554;BME280;17335;50.720;7.452;2023-01-19T14:59:55;98339.19;;;1.99;100.00
30554;BME280;17335;50.720;7.452;2023-01-19T15:02:22;98332.94;;;2.00;100.00
30554;BME280;17335;50.720;7.452;2023-01-19T15:04:49;98337.25;;;2.01;100.00
30554;BME280;17335;50.720;7.452;2023-01-19T15:07:22;98343.91;;;2.06;100.00
30554;BME280;17335;50.720;7.452;2023-01-19T15:09:50;98342.59;;;2.12;100.00